createdAt,value
2018-07-27T00:01:23.128Z,80.20
2018-07-27T00:03:53.211Z,80.20
2018-07-27T00:06:23.227Z,80.50
2018-07-27T00:08:53.278Z,78.70
2018-07-27T00:11:23.268Z,78.50
2018-07-27T00:13:53.438Z,79.60
2018-07-27T00:18:53.200Z,78.70
2018-07-27T00:21:23.310Z,78.70
2018-07-27T00:23:53.288Z,78.90
2018-07-27T00:26:23.283Z,79.10
2018-07-27T00:28:53.250Z,78.60
2018-07-27T00:31:23.275Z,79.00
2018-07-27T00:33:53.257Z,78.20
2018-07-27T00:36:23.322Z,77.90
2018-07-27T00:38:53.359Z,77.80
2018-07-27T00:41:23.351Z,77.70
2018-07-27T00:43:53.380Z,76.70
2018-07-27T00:46:23.413Z,76.90
2018-07-27T00:51:28.830Z,76.30
2018-07-27T00:53:58.759Z,75.60
2018-07-27T00:58:58.233Z,76.90
2018-07-27T01:01:28.150Z,77.20
2018-07-27T01:03:58.082Z,77.90
2018-07-27T01:06:28.030Z,77.60
2018-07-27T01:08:57.978Z,77.20
2018-07-27T01:11:27.874Z,78.50
2018-07-27T01:13:57.837Z,78.00
2018-07-27T01:16:27.758Z,77.60
2018-07-27T01:18:57.694Z,78.80
2018-07-27T01:21:27.639Z,80.80
2018-07-27T01:23:57.572Z,81.40
2018-07-27T01:26:27.500Z,83.20
2018-07-27T01:28:57.429Z,83.00
2018-07-27T01:31:27.394Z,84.90
2018-07-27T01:33:57.385Z,86.30
2018-07-27T01:36:27.306Z,84.70
2018-07-27T01:38:57.263Z,86.80
2018-07-27T01:41:27.155Z,86.90
2018-07-27T01:43:57.118Z,88.60
2018-07-27T01:46:27.074Z,90.90
2018-07-27T01:48:57.026Z,91.00
2018-07-27T01:51:26.949Z,91.40
2018-07-27T01:53:56.914Z,92.60
2018-07-27T01:56:26.838Z,92.90
2018-07-27T01:58:56.823Z,93.60
2018-07-27T02:01:26.805Z,95.60
2018-07-27T02:03:56.790Z,96.70
2018-07-27T02:06:26.735Z,97.10
2018-07-27T02:08:56.796Z,98.00
2018-07-27T02:11:26.791Z,98.50
2018-07-27T02:13:56.883Z,99.60
2018-07-27T02:16:26.849Z,99.90
2018-07-27T02:18:56.823Z,99.90
2018-07-27T02:21:26.840Z,99.60
2018-07-27T02:23:56.792Z,99.90
2018-07-27T02:28:56.326Z,99.90
2018-07-27T02:31:26.283Z,99.90
2018-07-27T02:33:56.301Z,99.90
2018-07-27T02:38:55.812Z,99.90
2018-07-27T02:41:25.855Z,99.90
2018-07-27T02:43:55.946Z,99.90
2018-07-27T02:46:25.889Z,99.90
2018-07-27T02:48:55.921Z,99.90
2018-07-27T02:51:25.946Z,99.90
2018-07-27T02:53:55.952Z,99.90
2018-07-27T02:56:26.062Z,99.90
2018-07-27T02:58:56.064Z,99.90
2018-07-27T03:01:26.072Z,99.90
2018-07-27T03:03:56.035Z,99.90
2018-07-27T03:06:26.027Z,99.90
2018-07-27T03:08:56.143Z,99.90
2018-07-27T03:11:26.144Z,99.90
2018-07-27T03:16:25.754Z,99.90
2018-07-27T03:18:55.990Z,99.90
2018-07-27T03:21:25.950Z,99.90
2018-07-27T03:23:56.015Z,99.90
2018-07-27T03:28:55.635Z,99.90
2018-07-27T03:31:25.628Z,99.90
2018-07-27T03:33:55.611Z,99.90
2018-07-27T03:36:25.614Z,99.90
2018-07-27T03:41:25.227Z,99.90
2018-07-27T03:43:55.255Z,99.90
2018-07-27T03:48:54.971Z,99.90
2018-07-27T03:51:25.029Z,99.90
2018-07-27T03:56:24.830Z,99.90
2018-07-27T03:58:54.863Z,99.90
2018-07-27T04:01:24.806Z,99.90
2018-07-27T04:03:54.794Z,99.90
2018-07-27T04:06:24.778Z,99.90
2018-07-27T04:11:24.482Z,99.90
2018-07-27T04:13:54.517Z,99.90
2018-07-27T04:16:24.499Z,99.90
2018-07-27T04:18:54.575Z,99.90
2018-07-27T04:21:24.695Z,99.90
2018-07-27T04:23:54.725Z,98.20
2018-07-27T04:26:24.823Z,97.50
2018-07-27T04:31:24.465Z,99.20
2018-07-27T04:33:55.590Z,99.70
2018-07-27T04:36:25.532Z,99.90
2018-07-27T04:38:55.542Z,99.90
2018-07-27T04:41:25.531Z,99.90
2018-07-27T04:43:55.557Z,99.90
2018-07-27T04:46:25.518Z,99.90
2018-07-27T04:51:25.231Z,99.90
2018-07-27T04:53:55.215Z,99.90
2018-07-27T04:56:25.246Z,99.90
2018-07-27T05:03:54.522Z,99.90
2018-07-27T05:08:59.381Z,99.90
2018-07-27T05:11:29.299Z,99.90
2018-07-27T05:13:59.229Z,99.90
2018-07-27T05:16:29.150Z,99.90
2018-07-27T05:18:59.130Z,99.90
2018-07-27T05:21:29.042Z,99.90
2018-07-27T05:23:58.984Z,99.90
2018-07-27T05:26:28.919Z,99.90
2018-07-27T05:28:58.915Z,99.90
2018-07-27T05:31:29.044Z,99.90
2018-07-27T05:33:59.099Z,99.90
2018-07-27T05:36:29.054Z,99.90
2018-07-27T05:38:59.366Z,99.90
2018-07-27T05:41:29.295Z,99.90
2018-07-27T05:43:59.247Z,99.90
2018-07-27T05:48:58.783Z,99.90
2018-07-27T05:51:28.719Z,99.90
2018-07-27T05:53:58.797Z,99.90
2018-07-27T05:56:29.016Z,99.90
2018-07-27T05:58:58.950Z,99.90
2018-07-27T06:01:28.862Z,99.90
2018-07-27T06:03:58.871Z,99.90
2018-07-27T06:06:28.802Z,99.90
2018-07-27T06:08:58.755Z,99.90
2018-07-27T06:11:28.699Z,99.90
2018-07-27T06:13:58.623Z,99.90
2018-07-27T06:16:28.530Z,99.90
2018-07-27T06:18:58.488Z,99.90
2018-07-27T06:21:28.443Z,99.90
2018-07-27T06:23:58.580Z,99.90
2018-07-27T06:26:28.294Z,99.90
2018-07-27T06:28:58.239Z,99.90
2018-07-27T06:31:28.199Z,99.90
2018-07-27T06:33:58.115Z,99.90
2018-07-27T06:36:28.079Z,99.90
2018-07-27T06:38:58.059Z,99.90
2018-07-27T06:41:27.983Z,99.90
2018-07-27T06:43:57.942Z,99.90
2018-07-27T06:48:57.474Z,99.90
2018-07-27T06:51:27.398Z,99.50
2018-07-27T06:53:57.370Z,97.80
2018-07-27T06:56:27.331Z,97.00
2018-07-27T06:58:57.303Z,97.40
2018-07-27T07:01:27.243Z,98.70
2018-07-27T07:03:57.178Z,98.50
2018-07-27T07:06:27.147Z,98.00
2018-07-27T07:08:57.111Z,97.30
2018-07-27T07:11:27.086Z,95.40
2018-07-27T07:13:57.083Z,91.70
2018-07-27T07:16:27.107Z,88.00
2018-07-27T07:18:57.070Z,80.90
2018-07-27T07:21:27.211Z,77.40
2018-07-27T07:23:57.140Z,75.40
2018-07-27T07:26:27.123Z,74.90
2018-07-27T07:28:57.398Z,69.10
2018-07-27T07:31:27.403Z,69.40
2018-07-27T07:33:57.342Z,66.60
2018-07-27T07:36:27.262Z,64.70
2018-07-27T07:38:57.221Z,64.20
2018-07-27T07:41:27.146Z,64.60
2018-07-27T07:43:57.108Z,65.30
2018-07-27T07:46:27.126Z,64.20
2018-07-27T07:49:01.223Z,64.30
2018-07-27T07:51:31.174Z,62.00
2018-07-27T07:54:01.103Z,61.90
2018-07-27T07:56:31.158Z,61.40
2018-07-27T07:59:01.337Z,61.70
2018-07-27T08:01:31.474Z,63.10
2018-07-27T08:04:01.435Z,61.90
2018-07-27T08:06:31.380Z,58.50
2018-07-27T08:09:01.315Z,56.90
2018-07-27T08:11:31.229Z,56.20
2018-07-27T08:14:01.163Z,54.20
2018-07-27T08:16:31.103Z,55.80
2018-07-27T08:19:01.117Z,56.30
2018-07-27T08:21:31.033Z,57.10
2018-07-27T08:24:01.010Z,57.80
2018-07-27T08:29:11.886Z,58.70
2018-07-27T08:31:43.883Z,58.80
2018-07-27T08:34:14.582Z,57.80
2018-07-27T08:36:44.546Z,59.70
2018-07-27T08:39:16.320Z,59.60
2018-07-27T08:41:46.711Z,58.90
2018-07-27T08:44:17.914Z,58.40
2018-07-27T08:46:47.853Z,58.00
2018-07-27T08:49:17.807Z,58.80
2018-07-27T08:51:47.761Z,58.50
2018-07-27T08:54:17.740Z,58.70
2018-07-27T08:56:47.791Z,57.10
2018-07-27T08:59:17.798Z,57.70
2018-07-27T09:01:47.738Z,57.40
2018-07-27T09:04:17.807Z,57.40
2018-07-27T09:06:47.745Z,56.20
2018-07-27T09:09:18.797Z,55.50
2018-07-27T09:11:48.759Z,55.30
2018-07-27T09:14:18.722Z,56.70
2018-07-27T09:16:48.675Z,55.80
2018-07-27T09:19:18.627Z,56.80
2018-07-27T09:21:48.582Z,55.70
2018-07-27T09:24:18.671Z,56.10
2018-07-27T09:26:48.490Z,55.80
2018-07-27T09:29:18.453Z,54.60
2018-07-27T09:31:48.394Z,54.40
2018-07-27T09:34:18.376Z,54.60
2018-07-27T09:36:48.245Z,54.40
2018-07-27T09:39:18.151Z,55.40
2018-07-27T09:41:48.623Z,54.60
2018-07-27T09:44:18.546Z,55.20
2018-07-27T09:46:48.471Z,54.30
2018-07-27T09:49:18.394Z,54.80
2018-07-27T09:51:48.651Z,52.70
2018-07-27T09:54:18.575Z,53.40
2018-07-27T09:56:48.506Z,51.50
2018-07-27T09:59:18.451Z,51.80
2018-07-27T10:01:48.383Z,51.40
2018-07-27T10:04:18.303Z,53.10
2018-07-27T10:06:48.230Z,51.90
2018-07-27T10:09:18.179Z,50.80
2018-07-27T10:11:48.113Z,48.80
2018-07-27T10:14:18.043Z,50.20
2018-07-27T10:16:47.986Z,49.60
2018-07-27T10:19:17.916Z,49.30
2018-07-27T10:21:47.994Z,49.10
2018-07-27T10:24:17.937Z,50.50
2018-07-27T10:26:47.865Z,49.70
2018-07-27T10:29:17.807Z,49.70
2018-07-27T10:31:47.862Z,48.10
2018-07-27T10:34:17.826Z,47.50
2018-07-27T10:36:47.766Z,49.10
2018-07-27T10:39:17.791Z,47.80
2018-07-27T10:41:48.768Z,48.70
2018-07-27T10:44:18.908Z,48.10
2018-07-27T10:46:48.851Z,46.80
2018-07-27T10:49:18.762Z,46.10
2018-07-27T10:51:48.698Z,47.80
2018-07-27T10:56:48.251Z,45.40
2018-07-27T10:59:18.178Z,43.40
2018-07-27T11:01:48.108Z,44.50
2018-07-27T11:04:18.035Z,45.70
2018-07-27T11:06:47.974Z,43.80
2018-07-27T11:09:17.936Z,43.70
2018-07-27T11:11:47.879Z,45.30
2018-07-27T11:14:17.951Z,45.40
2018-07-27T11:16:47.963Z,45.00
2018-07-27T11:19:17.935Z,45.10
2018-07-27T11:21:47.902Z,44.10
2018-07-27T11:24:17.894Z,43.80
2018-07-27T11:26:47.859Z,44.40
2018-07-27T11:29:17.796Z,43.10
2018-07-27T11:31:47.787Z,43.00
2018-07-27T11:34:17.730Z,43.60
2018-07-27T11:36:47.642Z,44.10
2018-07-27T11:39:17.615Z,44.60
2018-07-27T11:41:48.381Z,43.10
2018-07-27T11:44:18.470Z,44.60
2018-07-27T11:46:48.397Z,44.40
2018-07-27T11:49:18.392Z,45.00
2018-07-27T11:51:48.311Z,44.50
2018-07-27T11:54:18.290Z,46.00
2018-07-27T11:56:48.226Z,48.00
2018-07-27T11:59:18.209Z,46.90
2018-07-27T12:01:48.139Z,46.50
2018-07-27T12:04:18.316Z,45.30
2018-07-27T12:06:48.251Z,46.00
2018-07-27T12:09:18.191Z,47.00
2018-07-27T12:11:48.115Z,48.50
2018-07-27T12:14:18.267Z,48.90
2018-07-27T12:16:47.981Z,47.20
2018-07-27T12:19:17.914Z,46.10
2018-07-27T12:21:48.094Z,44.40
2018-07-27T12:24:17.888Z,45.40
2018-07-27T12:26:47.908Z,45.20
2018-07-27T12:29:17.871Z,43.90
2018-07-27T12:31:47.814Z,44.50
2018-07-27T12:34:17.838Z,44.30
2018-07-27T12:36:47.850Z,44.10
2018-07-27T12:39:17.875Z,43.20
2018-07-27T12:41:47.886Z,44.70
2018-07-27T12:44:17.835Z,44.40
2018-07-27T12:46:47.771Z,45.20
2018-07-27T12:49:17.806Z,45.80
2018-07-27T12:51:48.399Z,45.30
2018-07-27T12:54:18.455Z,44.00
2018-07-27T12:56:48.466Z,44.60
2018-07-27T12:59:18.399Z,43.90
2018-07-27T13:01:48.312Z,42.30
2018-07-27T13:04:19.417Z,43.00
2018-07-27T13:06:49.526Z,43.70
2018-07-27T13:09:19.454Z,43.10
2018-07-27T13:11:49.377Z,43.50
2018-07-27T13:14:19.349Z,44.50
2018-07-27T13:16:49.266Z,45.60
2018-07-27T13:19:19.213Z,45.40
2018-07-27T13:21:49.193Z,45.80
2018-07-27T13:24:19.126Z,45.20
2018-07-27T13:26:49.050Z,45.80
2018-07-27T13:29:20.716Z,44.70
2018-07-27T13:31:52.997Z,43.50
2018-07-27T13:34:43.432Z,43.50
2018-07-27T13:37:13.570Z,43.20
2018-07-27T13:39:44.154Z,43.30
2018-07-27T13:42:15.367Z,43.30
2018-07-27T13:44:45.399Z,44.40
2018-07-27T13:47:15.777Z,44.30
2018-07-27T13:49:45.711Z,45.30
2018-07-27T13:52:15.640Z,44.00
2018-07-27T13:54:45.606Z,42.50
2018-07-27T13:57:15.546Z,42.90
2018-07-27T13:59:46.623Z,43.80
2018-07-27T14:02:16.543Z,42.30
2018-07-27T14:04:46.478Z,43.10
2018-07-27T14:09:46.034Z,42.00
2018-07-27T14:12:15.963Z,41.30
2018-07-27T14:14:45.891Z,42.30
2018-07-27T14:17:15.835Z,41.30
2018-07-27T14:19:45.719Z,41.00
2018-07-27T14:22:15.630Z,40.10
2018-07-27T14:24:45.547Z,40.90
2018-07-27T14:27:15.460Z,42.30
2018-07-27T14:29:45.399Z,40.10
2018-07-27T14:32:15.339Z,40.50
2018-07-27T14:34:45.250Z,43.10
2018-07-27T14:37:15.163Z,43.80
2018-07-27T14:39:45.108Z,44.10
2018-07-27T14:42:15.032Z,45.40
2018-07-27T14:44:44.979Z,46.90
2018-07-27T14:47:14.900Z,46.10
2018-07-27T14:49:44.915Z,46.20
2018-07-27T14:52:14.950Z,45.10
2018-07-27T14:54:44.810Z,47.00
2018-07-27T14:57:14.755Z,48.10
2018-07-27T14:59:44.792Z,48.90
2018-07-27T15:02:14.784Z,47.00
2018-07-27T15:04:44.742Z,48.30
2018-07-27T15:07:14.638Z,48.70
2018-07-27T15:09:44.573Z,49.20
2018-07-27T15:12:14.598Z,47.80
2018-07-27T15:14:44.526Z,47.40
2018-07-27T15:17:14.446Z,46.50
2018-07-27T15:19:44.390Z,46.60
2018-07-27T15:22:14.434Z,45.30
2018-07-27T15:24:44.366Z,45.40
2018-07-27T15:27:14.291Z,48.20
2018-07-27T15:29:44.322Z,47.50
2018-07-27T15:32:14.255Z,47.80
2018-07-27T15:34:44.174Z,47.70
2018-07-27T15:37:14.194Z,46.80
2018-07-27T15:39:44.130Z,46.20
2018-07-27T15:42:14.050Z,46.40
2018-07-27T15:44:44.058Z,46.70
2018-07-27T15:47:13.977Z,48.10
2018-07-27T15:49:43.918Z,48.20
2018-07-27T15:52:14.036Z,48.60
2018-07-27T15:54:43.970Z,46.70
2018-07-27T15:57:13.898Z,47.70
2018-07-27T15:59:43.846Z,49.90
2018-07-27T16:02:13.798Z,51.30
2018-07-27T16:04:43.787Z,50.50
2018-07-27T16:07:13.850Z,48.00
2018-07-27T16:09:43.879Z,48.40
2018-07-27T16:12:13.843Z,45.40
2018-07-27T16:14:43.882Z,44.90
2018-07-27T16:17:13.814Z,44.60
2018-07-27T16:19:43.758Z,43.90
2018-07-27T16:22:13.738Z,46.50
2018-07-27T16:24:43.719Z,44.30
2018-07-27T16:27:13.720Z,43.40
2018-07-27T16:29:43.664Z,42.20
2018-07-27T16:32:13.615Z,42.70
2018-07-27T16:34:43.643Z,43.00
2018-07-27T16:37:13.567Z,42.70
2018-07-27T16:39:43.510Z,41.90
2018-07-27T16:42:13.422Z,42.80
2018-07-27T16:44:43.353Z,42.80
2018-07-27T16:47:13.290Z,41.70
2018-07-27T16:49:43.373Z,43.40
2018-07-27T16:52:13.294Z,41.80
2018-07-27T16:54:43.279Z,40.70
2018-07-27T16:57:13.256Z,38.90
2018-07-27T16:59:43.196Z,38.70
2018-07-27T17:02:13.198Z,38.90
2018-07-27T17:04:43.196Z,40.60
2018-07-27T17:07:13.131Z,39.60
2018-07-27T17:12:12.746Z,40.20
2018-07-27T17:14:42.578Z,39.60
2018-07-27T17:17:12.599Z,40.50
2018-07-27T17:19:42.565Z,40.80
2018-07-27T17:22:12.552Z,40.10
2018-07-27T17:24:42.507Z,40.50
2018-07-27T17:27:12.430Z,40.30
2018-07-27T17:29:42.361Z,41.60
2018-07-27T17:32:12.324Z,42.70
2018-07-27T17:34:42.258Z,43.80
2018-07-27T17:37:12.180Z,44.70
2018-07-27T17:39:42.310Z,45.10
2018-07-27T17:42:12.234Z,46.60
2018-07-27T17:44:42.199Z,47.90
2018-07-27T17:47:12.114Z,48.80
2018-07-27T17:49:42.039Z,48.10
2018-07-27T17:52:11.986Z,48.70
2018-07-27T17:54:41.892Z,49.10
2018-07-27T17:57:11.831Z,49.60
2018-07-27T17:59:41.739Z,50.80
2018-07-27T18:02:11.691Z,49.90
2018-07-27T18:04:41.730Z,51.90
2018-07-27T18:07:11.738Z,52.30
2018-07-27T18:09:41.582Z,53.90
2018-07-27T18:12:11.655Z,54.50
2018-07-27T18:14:41.618Z,54.80
2018-07-27T18:17:11.629Z,55.00
2018-07-27T18:19:41.547Z,55.50
2018-07-27T18:22:11.540Z,55.70
2018-07-27T18:24:41.458Z,56.60
2018-07-27T18:27:11.402Z,57.30
2018-07-27T18:29:41.419Z,57.70
2018-07-27T18:32:11.442Z,57.40
2018-07-27T18:34:41.426Z,58.30
2018-07-27T18:37:11.359Z,59.10
2018-07-27T18:39:41.323Z,60.00
2018-07-27T18:44:41.063Z,60.80
2018-07-27T18:47:11.002Z,61.70
2018-07-27T18:49:41.111Z,62.30
2018-07-27T18:54:41.199Z,63.90
2018-07-27T18:57:11.882Z,66.10
2018-07-27T18:59:42.358Z,67.60
2018-07-27T19:02:12.359Z,68.40
2018-07-27T19:04:42.414Z,68.90
2018-07-27T19:07:12.407Z,70.50
2018-07-27T19:09:42.315Z,69.70
2018-07-27T19:12:12.251Z,69.60
2018-07-27T19:14:42.171Z,70.80
2018-07-27T19:17:12.238Z,70.90
2018-07-27T19:19:42.142Z,70.90
2018-07-27T19:22:12.149Z,72.00
2018-07-27T19:24:42.074Z,72.60
2018-07-27T19:27:12.027Z,72.70
2018-07-27T19:29:41.958Z,73.30
2018-07-27T19:32:11.892Z,74.50
2018-07-27T19:34:41.807Z,74.40
2018-07-27T19:37:11.763Z,74.50
2018-07-27T19:39:41.687Z,76.50
2018-07-27T19:42:11.688Z,76.30
2018-07-27T19:44:41.692Z,76.70
2018-07-27T19:47:11.627Z,75.30
2018-07-27T19:49:41.570Z,74.00
2018-07-27T19:52:11.716Z,72.70
2018-07-27T19:57:11.295Z,71.50
2018-07-27T19:59:41.356Z,72.80
2018-07-27T20:02:11.287Z,73.00
2018-07-27T20:04:41.235Z,72.40
2018-07-27T20:07:11.154Z,72.50
2018-07-27T20:09:41.082Z,74.30
2018-07-27T20:12:11.054Z,73.80
2018-07-27T20:14:40.990Z,73.60
2018-07-27T20:17:10.918Z,73.30
2018-07-27T20:19:40.902Z,72.40
2018-07-27T20:22:10.834Z,71.20
2018-07-27T20:24:40.771Z,70.60
2018-07-27T20:27:10.712Z,72.40
2018-07-27T20:29:40.695Z,72.00
2018-07-27T20:32:10.652Z,71.70
2018-07-27T20:34:40.622Z,73.00
2018-07-27T20:37:10.680Z,71.90
2018-07-27T20:39:40.655Z,71.60
2018-07-27T20:42:10.622Z,70.40
2018-07-27T20:44:40.604Z,71.00
2018-07-27T20:47:10.567Z,70.30
2018-07-27T20:49:40.573Z,71.90
2018-07-27T20:52:10.581Z,70.20
2018-07-27T20:54:40.614Z,69.00
2018-07-27T20:57:10.594Z,69.30
2018-07-27T20:59:40.619Z,69.80
2018-07-27T21:02:10.614Z,70.30
2018-07-27T21:04:40.656Z,68.40
2018-07-27T21:07:10.665Z,68.70
2018-07-27T21:09:40.725Z,68.40
2018-07-27T21:12:10.714Z,68.90
2018-07-27T21:14:40.699Z,67.10
2018-07-27T21:17:10.880Z,67.00
2018-07-27T21:19:40.879Z,68.20
2018-07-27T21:22:10.800Z,67.70
2018-07-27T21:24:40.783Z,68.70
2018-07-27T21:27:10.824Z,69.00
2018-07-27T21:29:40.831Z,69.20
2018-07-27T21:32:10.948Z,68.90
2018-07-27T21:34:41.014Z,69.60
2018-07-27T21:37:11.100Z,69.80
2018-07-27T21:39:41.111Z,70.50
2018-07-27T21:42:11.282Z,69.90
2018-07-27T21:44:41.312Z,69.90
2018-07-27T21:47:11.567Z,70.40
2018-07-27T21:49:41.570Z,70.80
2018-07-27T21:52:11.525Z,71.10
2018-07-27T21:54:41.533Z,71.10
2018-07-27T21:57:11.823Z,70.40
2018-07-27T21:59:41.926Z,70.80
2018-07-27T22:02:11.911Z,71.10
2018-07-27T22:04:41.854Z,71.10
2018-07-27T22:09:41.402Z,71.00
2018-07-27T22:12:11.367Z,71.60
2018-07-27T22:14:41.351Z,71.60
2018-07-27T22:17:11.292Z,71.70
2018-07-27T22:19:41.248Z,72.30
2018-07-27T22:22:11.295Z,72.10
2018-07-27T22:24:41.285Z,73.90
2018-07-27T22:27:11.250Z,73.10
2018-07-27T22:32:10.808Z,72.80
2018-07-27T22:34:40.844Z,73.50
2018-07-27T22:37:10.752Z,73.00
2018-07-27T22:39:40.715Z,73.00
2018-07-27T22:42:10.737Z,72.90
2018-07-27T22:44:40.917Z,72.20
2018-07-27T22:47:10.882Z,71.30
2018-07-27T22:49:40.950Z,72.10
2018-07-27T22:52:10.875Z,70.70
2018-07-27T22:54:40.890Z,70.80
2018-07-27T22:57:10.967Z,70.30
2018-07-27T22:59:40.943Z,71.30
2018-07-27T23:02:10.921Z,70.40
2018-07-27T23:04:41.087Z,70.80
2018-07-27T23:07:11.310Z,72.40
2018-07-27T23:09:41.297Z,71.60
2018-07-27T23:12:11.291Z,72.80
2018-07-27T23:14:41.258Z,73.80
2018-07-27T23:17:11.238Z,74.20
2018-07-27T23:19:41.289Z,76.00
2018-07-27T23:24:40.798Z,79.20
2018-07-27T23:27:10.711Z,79.80
2018-07-27T23:29:40.711Z,81.40
2018-07-27T23:32:10.641Z,83.00
2018-07-27T23:34:40.610Z,84.80
2018-07-27T23:37:10.522Z,85.10
2018-07-27T23:39:40.482Z,85.60
2018-07-27T23:42:10.414Z,87.70
2018-07-27T23:47:09.970Z,87.30
2018-07-27T23:49:39.946Z,87.60
2018-07-27T23:52:09.938Z,88.10
2018-07-27T23:54:39.886Z,85.90
2018-07-27T23:57:09.898Z,85.90
2018-07-27T23:59:41.994Z,87.00
